Time;durP1;ratioP1;P1;durP2;ratioP2;P2;SDS_P1;SDS_P2;PMS_P1;PMS_P2;Temp;Humidity;BMP_temperature;BMP_pressure;BME280_temperature;BME280_humidity;BME280_pressure;Samples;Min_cycle;Max_cycle;Signal;HPM_P1;HPM_P2
2023/07/30 00:01:14;;;;;;;11.53;4.73;;;19.80;99.90;;;;;;5039122;28;20053;-75
2023/07/30 00:03:40;;;;;;;10.20;5.00;;;19.90;99.90;;;;;;5034549;28;20107;-76
2023/07/30 00:06:05;;;;;;;15.37;4.57;;;20.00;99.90;;;;;;5038676;28;20847;-75
2023/07/30 00:08:31;;;;;;;6.25;4.82;;;19.80;99.90;;;;;;5038860;28;20029;-74
2023/07/30 00:10:58;;;;;;;7.27;4.83;;;19.80;99.90;;;;;;5040891;28;20084;-75
2023/07/30 00:13:23;;;;;;;8.30;5.28;;;19.80;99.90;;;;;;5035148;28;20029;-74
2023/07/30 00:15:49;;;;;;;6.13;4.68;;;19.80;99.90;;;;;;5030754;28;20030;-75
2023/07/30 00:18:15;;;;;;;6.25;4.72;;;19.90;99.90;;;;;;5037654;28;20082;-74
2023/07/30 00:20:41;;;;;;;8.03;5.37;;;19.90;99.90;;;;;;5031579;28;20852;-74
2023/07/30 00:23:06;;;;;;;21.73;7.93;;;20.00;99.90;;;;;;5032621;28;20528;-75
2023/07/30 00:25:32;;;;;;;8.23;5.67;;;20.00;99.90;;;;;;5035478;28;20283;-74
2023/07/30 00:27:57;;;;;;;9.43;4.70;;;20.10;99.90;;;;;;5034994;28;20036;-75
2023/07/30 00:30:23;;;;;;;8.40;5.83;;;20.10;99.90;;;;;;5032845;28;20481;-75
2023/07/30 00:32:48;;;;;;;8.60;5.37;;;20.20;99.90;;;;;;5037862;28;20037;-75
2023/07/30 00:35:14;;;;;;;7.37;4.83;;;20.20;99.90;;;;;;5033090;28;20069;-75
2023/07/30 00:37:40;;;;;;;7.15;4.72;;;20.20;99.90;;;;;;5033032;28;20037;-75
2023/07/30 00:40:08;;;;;;;9.50;5.80;;;20.30;99.90;;;;;;5037965;28;20397;-77
2023/07/30 00:42:33;;;;;;;9.32;5.43;;;20.30;99.90;;;;;;5031132;28;20036;-77
2023/07/30 00:44:59;;;;;;;14.97;5.50;;;20.40;99.90;;;;;;5032395;28;20034;-75
2023/07/30 00:47:26;;;;;;;9.50;5.17;;;20.30;99.90;;;;;;5034914;28;20043;-77
2023/07/30 00:49:52;;;;;;;;;;;20.30;99.90;;;;;;5031424;28;20587;-74
2023/07/30 00:52:20;;;;;;;15.57;8.23;;;20.20;99.90;;;;;;5030599;28;20406;-75
2023/07/30 00:54:48;;;;;;;11.50;5.50;;;20.10;99.90;;;;;;5040048;28;20021;-76
2023/07/30 00:57:14;;;;;;;11.60;5.00;;;20.10;99.90;;;;;;5043565;28;20025;-76
2023/07/30 00:59:40;;;;;;;12.50;5.70;;;20.00;99.90;;;;;;5037856;28;20111;-75
2023/07/30 01:02:05;;;;;;;6.00;4.57;;;19.90;99.90;;;;;;5035541;28;20164;-77
2023/07/30 01:04:32;;;;;;;12.87;5.80;;;19.80;99.90;;;;;;5041023;28;20523;-74
2023/07/30 01:06:57;;;;;;;9.48;5.20;;;19.80;99.90;;;;;;5037908;28;20067;-75
2023/07/30 01:09:23;;;;;;;10.93;5.33;;;19.70;99.90;;;;;;5030836;28;20113;-74
2023/07/30 01:11:50;;;;;;;8.02;5.15;;;19.70;99.90;;;;;;5031983;28;20291;-75
2023/07/30 01:14:18;;;;;;;8.30;5.25;;;19.70;99.90;;;;;;5022201;28;20122;-74
2023/07/30 01:16:44;;;;;;;9.32;6.18;;;19.80;99.90;;;;;;5029227;28;20736;-75
2023/07/30 01:19:10;;;;;;;12.60;5.77;;;19.70;99.90;;;;;;5035567;28;20021;-75
2023/07/30 01:21:37;;;;;;;8.15;5.45;;;19.60;99.90;;;;;;5038949;28;20025;-75
2023/07/30 01:24:03;;;;;;;9.15;5.20;;;19.60;99.90;;;;;;5036593;28;20073;-75
2023/07/30 01:26:32;;;;;;;;;;;19.70;99.90;;;;;;5036712;28;20036;-76
2023/07/30 01:29:01;;;;;;;16.02;6.93;;;19.70;99.90;;;;;;5028972;28;20381;-75
2023/07/30 01:31:30;;;;;;;7.57;5.55;;;19.60;99.90;;;;;;5027112;28;20048;-75
2023/07/30 01:33:56;;;;;;;7.20;5.13;;;19.50;99.90;;;;;;5036118;28;20115;-75
2023/07/30 01:36:22;;;;;;;7.82;5.45;;;19.50;99.90;;;;;;5034919;28;20529;-75
2023/07/30 01:38:50;;;;;;;10.55;5.78;;;19.40;99.90;;;;;;5035841;28;20382;-75
2023/07/30 01:41:16;;;;;;;9.55;6.03;;;19.50;99.90;;;;;;5030006;28;20405;-75
2023/07/30 01:43:41;;;;;;;8.15;6.10;;;19.50;99.90;;;;;;5026090;28;20493;-75
2023/07/30 01:46:07;;;;;;;8.10;6.03;;;19.50;99.90;;;;;;5034398;28;20586;-75
2023/07/30 01:48:33;;;;;;;8.00;6.10;;;19.50;99.90;;;;;;5036310;28;20708;-74
2023/07/30 01:50:58;;;;;;;10.83;7.03;;;19.50;99.90;;;;;;5031459;28;20429;-76
2023/07/30 01:53:24;;;;;;;13.23;6.20;;;19.50;99.90;;;;;;5030726;28;20029;-75
2023/07/30 01:55:49;;;;;;;13.77;5.50;;;19.50;99.90;;;;;;5037471;28;20025;-74
2023/07/30 01:58:15;;;;;;;9.53;6.33;;;19.50;99.90;;;;;;5041655;28;20060;-75
2023/07/30 02:00:41;;;;;;;14.10;6.73;;;19.40;99.90;;;;;;5025071;28;20275;-74
2023/07/30 02:03:07;;;;;;;8.37;6.47;;;19.40;99.90;;;;;;5036328;28;20093;-74
2023/07/30 02:05:33;;;;;;;14.23;8.20;;;19.40;99.90;;;;;;5036815;28;20044;-74
2023/07/30 02:07:58;;;;;;;11.57;7.30;;;19.40;99.90;;;;;;5037150;28;20032;-75
2023/07/30 02:10:27;;;;;;;9.53;6.67;;;19.40;99.90;;;;;;5033005;28;20120;-74
2023/07/30 02:12:53;;;;;;;9.02;6.10;;;19.50;99.90;;;;;;5026023;28;20061;-74
2023/07/30 02:15:18;;;;;;;9.90;7.00;;;19.50;99.90;;;;;;5037564;28;20160;-74
2023/07/30 02:17:44;;;;;;;14.07;6.47;;;19.40;99.90;;;;;;5023143;28;20140;-74
2023/07/30 02:20:09;;;;;;;14.87;6.70;;;19.50;99.90;;;;;;5031085;28;20024;-74
2023/07/30 02:22:35;;;;;;;14.15;7.00;;;19.50;99.90;;;;;;5032417;28;20041;-75
2023/07/30 02:25:01;;;;;;;7.00;6.27;;;19.40;99.90;;;;;;5032327;28;20041;-74
2023/07/30 02:27:26;;;;;;;10.53;6.07;;;19.40;99.90;;;;;;5035587;28;20028;-74
2023/07/30 02:29:52;;;;;;;7.73;6.10;;;19.40;99.90;;;;;;5028261;28;20420;-74
2023/07/30 02:32:17;;;;;;;9.30;6.00;;;19.30;99.90;;;;;;5036934;28;20029;-75
2023/07/30 02:34:43;;;;;;;10.17;6.10;;;19.40;99.90;;;;;;5032085;28;20025;-74
2023/07/30 02:37:08;;;;;;;9.70;6.33;;;19.40;99.90;;;;;;5036164;28;20040;-74
2023/07/30 02:39:34;;;;;;;12.17;6.20;;;19.50;99.90;;;;;;5030352;28;20042;-75
2023/07/30 02:41:59;;;;;;;8.03;6.57;;;19.50;99.90;;;;;;5030097;28;20104;-74
2023/07/30 02:44:25;;;;;;;10.83;6.80;;;19.50;99.90;;;;;;5033495;28;20426;-74
2023/07/30 02:46:51;;;;;;;12.20;6.07;;;19.30;99.90;;;;;;5035282;28;20034;-75
2023/07/30 02:49:16;;;;;;;9.07;6.23;;;19.30;99.90;;;;;;5029253;28;20025;-74
2023/07/30 02:51:48;;;;;;;7.83;6.43;;;19.20;99.90;;;;;;5029182;28;20520;-74
2023/07/30 02:54:14;;;;;;;7.85;6.13;;;19.20;99.90;;;;;;5029699;28;20057;-75
2023/07/30 02:56:39;;;;;;;13.38;7.70;;;19.30;99.90;;;;;;5032376;28;20065;-74
2023/07/30 02:59:05;;;;;;;12.13;6.87;;;19.30;99.90;;;;;;5032349;28;20035;-74
2023/07/30 03:01:30;;;;;;;13.23;7.20;;;19.20;99.90;;;;;;5032360;28;20037;-74
2023/07/30 03:03:56;;;;;;;8.30;6.33;;;19.10;99.90;;;;;;5027228;28;20461;-74
2023/07/30 03:06:22;;;;;;;12.20;6.60;;;19.10;99.90;;;;;;5031681;28;20029;-74
2023/07/30 03:08:47;;;;;;;9.60;6.80;;;19.20;99.90;;;;;;5035434;28;20040;-74
2023/07/30 03:11:13;;;;;;;9.87;6.87;;;19.20;99.90;;;;;;5033552;28;20036;-74
2023/07/30 03:13:39;;;;;;;9.23;6.82;;;19.20;99.90;;;;;;5031627;28;20055;-74
2023/07/30 03:16:04;;;;;;;8.97;6.23;;;19.20;99.90;;;;;;5033079;28;20438;-74
2023/07/30 03:18:30;;;;;;;13.20;7.00;;;19.20;99.90;;;;;;5029425;28;20500;-75
2023/07/30 03:21:03;;;;;;;8.87;6.63;;;19.10;99.90;;;;;;5028413;28;20022;-74
2023/07/30 03:23:29;;;;;;;11.57;6.00;;;19.10;99.90;;;;;;5026304;28;20040;-74
2023/07/30 03:25:54;;;;;;;10.47;6.03;;;19.10;99.90;;;;;;5030018;28;20030;-74
2023/07/30 03:28:20;;;;;;;10.13;7.07;;;19.00;99.90;;;;;;5028781;28;20323;-75
2023/07/30 03:30:45;;;;;;;11.37;7.07;;;19.00;99.90;;;;;;5027663;28;20061;-75
2023/07/30 03:33:11;;;;;;;9.03;6.63;;;19.00;99.90;;;;;;5035419;28;20408;-75
2023/07/30 03:35:36;;;;;;;16.90;7.30;;;18.90;99.90;;;;;;5026775;28;20087;-75
2023/07/30 03:38:02;;;;;;;9.93;6.33;;;18.80;99.90;;;;;;5030512;28;20478;-75
2023/07/30 03:40:29;;;;;;;9.57;6.00;;;18.70;99.90;;;;;;5032232;28;20060;-74
2023/07/30 03:42:54;;;;;;;;;;;18.70;99.90;;;;;;5035777;28;20444;-75
2023/07/30 03:45:20;;;;;;;10.90;5.95;;;18.70;99.90;;;;;;5022252;28;19920;-74
2023/07/30 03:47:46;;;;;;;10.13;6.93;;;18.70;99.90;;;;;;5025929;28;20697;-74
2023/07/30 03:50:11;;;;;;;8.67;5.37;;;18.60;99.90;;;;;;5032847;28;20061;-74
2023/07/30 03:52:37;;;;;;;9.93;6.33;;;18.70;99.90;;;;;;5023740;28;20034;-74
2023/07/30 03:55:03;;;;;;;9.53;6.10;;;18.60;99.90;;;;;;5034115;28;20036;-74
2023/07/30 03:57:28;;;;;;;8.95;6.43;;;18.60;99.90;;;;;;5035367;28;20033;-75
2023/07/30 03:59:54;;;;;;;11.17;5.83;;;18.70;99.90;;;;;;5033386;28;20513;-74
2023/07/30 04:02:20;;;;;;;8.00;6.07;;;18.60;99.90;;;;;;5030068;28;20033;-75
2023/07/30 04:04:48;;;;;;;10.30;5.95;;;18.60;99.90;;;;;;5034201;28;20519;-75
2023/07/30 04:07:14;;;;;;;12.43;6.20;;;18.50;99.90;;;;;;5027197;28;20380;-75
2023/07/30 04:09:39;;;;;;;11.60;6.23;;;18.50;99.90;;;;;;5026185;28;20100;-74
2023/07/30 04:12:05;;;;;;;8.63;5.80;;;18.50;99.90;;;;;;5034163;28;20771;-75
2023/07/30 04:14:31;;;;;;;7.72;5.05;;;18.40;99.90;;;;;;5034342;28;20072;-75
2023/07/30 04:16:57;;;;;;;9.70;6.17;;;18.50;99.90;;;;;;5035408;28;20567;-75
2023/07/30 04:19:22;;;;;;;7.53;5.60;;;18.40;99.90;;;;;;5032838;28;20040;-75
2023/07/30 04:21:48;;;;;;;11.57;6.53;;;18.40;99.90;;;;;;5027071;28;20745;-74
2023/07/30 04:24:13;;;;;;;12.40;6.30;;;18.40;99.90;;;;;;5030824;28;20025;-75
2023/07/30 04:26:39;;;;;;;11.07;5.73;;;18.30;99.90;;;;;;5035307;28;20039;-75
2023/07/30 04:29:04;;;;;;;9.87;5.67;;;18.40;99.90;;;;;;5023538;28;20029;-75
2023/07/30 04:31:32;;;;;;;9.83;5.50;;;18.40;99.90;;;;;;5026714;28;20080;-75
2023/07/30 04:33:58;;;;;;;8.35;6.03;;;18.50;99.90;;;;;;5032727;28;20047;-74
2023/07/30 04:36:23;;;;;;;6.85;6.07;;;18.50;99.90;;;;;;5027286;28;20022;-74
2023/07/30 04:38:49;;;;;;;12.90;6.37;;;18.50;99.90;;;;;;5029122;28;20169;-75
2023/07/30 04:41:15;;;;;;;9.13;5.80;;;18.50;99.90;;;;;;5031341;28;20494;-74
2023/07/30 04:43:40;;;;;;;12.40;6.10;;;18.50;99.90;;;;;;5032062;28;20037;-74
2023/07/30 04:46:06;;;;;;;8.77;6.23;;;18.50;99.90;;;;;;5031899;28;20020;-74
2023/07/30 04:48:31;;;;;;;8.30;4.27;;;18.50;99.90;;;;;;5031095;28;20554;-74
2023/07/30 04:50:57;;;;;;;9.23;6.07;;;18.50;99.90;;;;;;5032119;28;20041;-74
2023/07/30 04:53:22;;;;;;;7.30;3.40;;;18.50;99.90;;;;;;5033835;28;20037;-74
2023/07/30 04:55:48;;;;;;;7.23;4.30;;;18.60;99.90;;;;;;5036483;28;20083;-75
2023/07/30 04:58:13;;;;;;;9.03;6.03;;;18.70;99.90;;;;;;5034700;28;20036;-74
2023/07/30 05:00:39;;;;;;;6.80;6.03;;;18.70;99.90;;;;;;5034407;28;20465;-74
2023/07/30 05:03:05;;;;;;;6.70;5.93;;;18.90;99.90;;;;;;5037178;28;20038;-75
2023/07/30 05:05:30;;;;;;;9.67;6.33;;;19.00;99.90;;;;;;5031717;28;20029;-74
2023/07/30 05:07:56;;;;;;;7.50;5.97;;;19.20;99.90;;;;;;5033913;28;20033;-74
2023/07/30 05:10:22;;;;;;;10.40;5.80;;;19.30;99.90;;;;;;5033933;28;20024;-74
2023/07/30 05:12:47;;;;;;;10.65;6.30;;;19.60;99.90;;;;;;5026043;28;20499;-74
2023/07/30 05:15:13;;;;;;;7.63;5.40;;;21.20;99.90;;;;;;5021380;28;20859;-74
2023/07/30 05:17:39;;;;;;;7.83;5.87;;;22.50;99.90;;;;;;5033934;28;20025;-74
2023/07/30 05:20:05;;;;;;;7.40;5.80;;;23.70;99.90;;;;;;5033011;28;20412;-74
2023/07/30 05:22:31;;;;;;;;;;;24.40;99.90;;;;;;5030412;28;20697;-74
2023/07/30 05:24:56;;;;;;;10.90;4.55;;;24.40;99.90;;;;;;5031470;28;19956;-74
2023/07/30 05:27:22;;;;;;;8.43;5.17;;;24.20;99.90;;;;;;5030589;28;20054;-75
2023/07/30 05:29:48;;;;;;;6.97;5.00;;;25.60;99.20;;;;;;5030890;28;20041;-74
2023/07/30 05:32:14;;;;;;;8.07;5.03;;;24.20;99.10;;;;;;5035525;28;20033;-73
2023/07/30 05:34:39;;;;;;;8.18;5.63;;;22.70;99.90;;;;;;5034409;28;20029;-76
2023/07/30 05:37:05;;;;;;;7.53;5.22;;;21.90;99.90;;;;;;5035735;28;20546;-75
2023/07/30 05:39:31;;;;;;;7.35;5.90;;;21.30;99.90;;;;;;5038725;28;20037;-75
2023/07/30 05:41:57;;;;;;;10.77;5.55;;;21.00;99.90;;;;;;5032462;28;20037;-75
2023/07/30 05:44:37;;;;;;;7.22;5.28;;;20.90;99.90;;;;;;5105529;27;20408;-68
2023/07/30 05:47:02;;;;;;;5.97;4.73;;;20.90;99.90;;;;;;5083777;28;20560;-68
2023/07/30 05:49:28;;;;;;;6.47;5.07;;;20.80;99.90;;;;;;5076024;28;20120;-68
2023/07/30 05:51:54;;;;;;;5.38;4.75;;;20.70;99.90;;;;;;5084825;28;20037;-67
2023/07/30 05:54:20;;;;;;;8.97;5.60;;;20.80;99.90;;;;;;5086745;28;20034;-67
2023/07/30 05:56:45;;;;;;;8.33;6.10;;;20.80;99.90;;;;;;5078626;28;20028;-68
2023/07/30 05:59:11;;;;;;;9.30;6.30;;;20.70;99.90;;;;;;5080475;28;20029;-69
2023/07/30 06:01:36;;;;;;;9.10;6.40;;;20.60;99.90;;;;;;5079291;28;20068;-68
2023/07/30 06:04:02;;;;;;;9.17;6.13;;;21.50;99.90;;;;;;5084862;28;20124;-68
2023/07/30 06:06:29;;;;;;;10.97;6.53;;;23.30;99.90;;;;;;5077635;28;20506;-69
2023/07/30 06:08:55;;;;;;;8.23;5.90;;;22.30;99.90;;;;;;5083180;28;20020;-68
2023/07/30 06:11:21;;;;;;;12.18;6.30;;;21.70;99.90;;;;;;5084964;28;20062;-68
2023/07/30 06:13:46;;;;;;;11.63;7.10;;;21.30;99.90;;;;;;5072298;28;20068;-69
2023/07/30 06:16:13;;;;;;;6.97;5.90;;;21.10;99.90;;;;;;5083555;28;20024;-70
2023/07/30 06:18:39;;;;;;;8.50;6.40;;;21.00;99.90;;;;;;5075422;28;20387;-72
2023/07/30 06:21:04;;;;;;;10.63;6.00;;;20.80;99.90;;;;;;5079416;28;20073;-71
2023/07/30 06:23:30;;;;;;;7.00;6.00;;;21.20;99.90;;;;;;5080312;28;20812;-77
2023/07/30 06:25:55;;;;;;;7.57;5.47;;;22.00;99.90;;;;;;5081788;28;20024;-75
2023/07/30 06:28:21;;;;;;;12.67;5.93;;;23.10;99.90;;;;;;5085440;28;20379;-71
2023/07/30 06:30:47;;;;;;;6.17;5.20;;;23.80;99.90;;;;;;5082476;28;20100;-72
2023/07/30 06:33:12;;;;;;;9.20;5.50;;;23.80;99.90;;;;;;5079399;28;20025;-73
2023/07/30 06:35:38;;;;;;;6.50;4.90;;;23.10;99.90;;;;;;5082165;28;20373;-73
2023/07/30 06:38:05;;;;;;;6.67;4.97;;;22.50;99.90;;;;;;5080801;28;20031;-72
2023/07/30 06:40:31;;;;;;;6.22;4.63;;;22.70;99.90;;;;;;5077996;28;20036;-73
2023/07/30 06:42:57;;;;;;;6.83;5.23;;;22.70;99.90;;;;;;5078381;28;20399;-72
2023/07/30 06:45:22;;;;;;;6.27;5.53;;;22.80;99.90;;;;;;5080431;28;20036;-73
2023/07/30 06:47:48;;;;;;;8.93;5.63;;;23.10;99.90;;;;;;5076232;28;20416;-73
2023/07/30 06:50:13;;;;;;;10.67;6.10;;;23.40;99.90;;;;;;5084432;28;20188;-73
2023/07/30 06:52:39;;;;;;;8.25;5.93;;;23.30;99.90;;;;;;5082664;28;20024;-73
2023/07/30 06:55:05;;;;;;;8.83;6.53;;;23.50;99.90;;;;;;5087211;28;20045;-68
2023/07/30 06:57:31;;;;;;;8.52;6.80;;;23.10;99.90;;;;;;5065299;28;20287;-68
2023/07/30 06:59:57;;;;;;;9.93;7.23;;;22.90;99.90;;;;;;5067930;28;20560;-68
2023/07/30 07:02:23;;;;;;;10.43;7.45;;;22.70;99.90;;;;;;5067742;28;20020;-68
2023/07/30 07:04:49;;;;;;;12.75;7.97;;;22.60;99.90;;;;;;5064261;28;20795;-68
2023/07/30 07:07:15;;;;;;;34.50;13.52;;;22.50;99.90;;;;;;5067833;28;20111;-68
2023/07/30 07:09:41;;;;;;;36.83;13.65;;;22.40;99.90;;;;;;5068419;28;20100;-68
2023/07/30 07:12:07;;;;;;;26.40;12.02;;;22.00;99.90;;;;;;5064071;28;20032;-68
2023/07/30 07:14:33;;;;;;;35.90;13.15;;;21.80;99.90;;;;;;5072898;28;20040;-68
2023/07/30 07:16:58;;;;;;;20.90;10.90;;;21.50;99.90;;;;;;5069538;28;20029;-68
2023/07/30 07:19:24;;;;;;;21.20;10.67;;;21.50;99.90;;;;;;5072224;28;20027;-68
2023/07/30 07:21:49;;;;;;;16.57;9.20;;;21.40;99.90;;;;;;5070731;28;20074;-67
2023/07/30 07:24:16;;;;;;;19.50;9.03;;;21.60;99.90;;;;;;5065592;28;20036;-68
2023/07/30 07:26:41;;;;;;;11.73;7.70;;;22.10;99.90;;;;;;5064217;28;20111;-68
2023/07/30 07:29:07;;;;;;;8.27;5.50;;;23.20;99.90;;;;;;5067860;28;20104;-68
2023/07/30 07:31:32;;;;;;;12.85;7.43;;;23.70;99.90;;;;;;5064973;28;20086;-67
2023/07/30 07:33:58;;;;;;;7.03;4.03;;;22.90;99.90;;;;;;5066512;28;20029;-67
2023/07/30 07:36:24;;;;;;;7.13;5.00;;;22.80;99.90;;;;;;5069795;28;20075;-68
2023/07/30 07:38:49;;;;;;;6.47;4.27;;;23.10;99.90;;;;;;5065663;28;20287;-67
2023/07/30 07:41:16;;;;;;;10.80;5.67;;;23.40;99.90;;;;;;5062913;28;20019;-67
2023/07/30 07:43:46;;;;;;;7.78;2.92;;;23.80;99.90;;;;;;5071024;28;20119;-67
2023/07/30 07:46:14;;;;;;;4.32;2.20;;;23.80;99.90;;;;;;5067276;28;20024;-67
2023/07/30 07:48:43;;;;;;;4.70;3.28;;;23.70;99.90;;;;;;5066154;28;20044;-68
2023/07/30 07:51:10;;;;;;;3.80;2.47;;;23.90;99.90;;;;;;5082767;28;20032;-68
2023/07/30 07:53:37;;;;;;;2.83;1.95;;;23.80;99.90;;;;;;5067379;28;20028;-67
2023/07/30 07:56:02;;;;;;;;;;;23.90;99.90;;;;;;5067097;28;20110;-67
2023/07/30 07:58:30;;;;;;;1.90;1.70;;;23.70;99.90;;;;;;5067981;28;20374;-67
2023/07/30 08:00:56;;;;;;;4.38;2.00;;;23.50;99.90;;;;;;5068522;28;20494;-67
2023/07/30 08:03:23;;;;;;;6.07;2.78;;;23.20;99.90;;;;;;5065374;28;20048;-67
2023/07/30 08:05:49;;;;;;;;;;;22.90;99.90;;;;;;5062786;28;20490;-67
2023/07/30 08:08:15;;;;;;;3.28;1.90;;;22.70;99.90;;;;;;5073175;28;19919;-68
2023/07/30 08:10:43;;;;;;;3.10;2.13;;;23.20;99.90;;;;;;5069356;28;20055;-67
2023/07/30 08:13:10;;;;;;;5.68;2.30;;;23.60;99.90;;;;;;5068043;28;20532;-68
2023/07/30 08:15:35;;;;;;;3.33;1.90;;;23.60;99.90;;;;;;5067262;28;20025;-67
2023/07/30 08:18:01;;;;;;;3.10;2.23;;;23.50;99.90;;;;;;5067887;28;20057;-68
2023/07/30 08:20:26;;;;;;;4.20;2.47;;;23.40;99.90;;;;;;5065880;28;20295;-68
2023/07/30 08:22:52;;;;;;;4.97;2.30;;;23.70;99.90;;;;;;5064182;28;20041;-67
2023/07/30 08:25:18;;;;;;;2.13;1.90;;;24.10;99.80;;;;;;5066071;28;20111;-67
2023/07/30 08:27:43;;;;;;;4.20;2.53;;;27.10;94.60;;;;;;5067756;28;20021;-68
2023/07/30 08:30:09;;;;;;;7.07;2.55;;;30.70;80.20;;;;;;5059093;28;20024;-67
2023/07/30 08:32:35;;;;;;;5.32;2.38;;;32.70;72.60;;;;;;5061756;28;20057;-68
2023/07/30 08:35:01;;;;;;;4.13;2.50;;;32.50;69.00;;;;;;5073793;28;20028;-68
2023/07/30 08:37:26;;;;;;;2.88;2.40;;;30.60;73.70;;;;;;5070947;28;20024;-68
2023/07/30 08:39:52;;;;;;;5.20;2.42;;;31.30;71.60;;;;;;5066742;28;20131;-68
2023/07/30 08:42:18;;;;;;;3.40;2.40;;;28.90;78.50;;;;;;5069718;28;20032;-68
2023/07/30 08:44:44;;;;;;;4.90;2.40;;;28.60;80.70;;;;;;5070235;28;20082;-68
2023/07/30 08:47:10;;;;;;;6.07;2.45;;;27.20;81.60;;;;;;5062941;28;20036;-67
2023/07/30 08:49:36;;;;;;;5.07;2.60;;;26.40;86.50;;;;;;5064896;28;20036;-68
2023/07/30 08:52:03;;;;;;;6.20;2.67;;;28.50;80.00;;;;;;5065336;28;20016;-67
2023/07/30 08:54:30;;;;;;;3.78;1.98;;;31.50;73.00;;;;;;5066876;28;20044;-67
2023/07/30 08:56:57;;;;;;;4.53;2.30;;;32.40;68.40;;;;;;5070468;28;20040;-68
2023/07/30 08:59:24;;;;;;;6.95;2.60;;;30.20;70.30;;;;;;5064263;28;20441;-68
2023/07/30 09:01:52;;;;;;;4.57;2.50;;;27.60;77.30;;;;;;5066464;28;20086;-68
2023/07/30 09:04:18;;;;;;;4.13;2.03;;;26.70;78.80;;;;;;5066730;28;20426;-68
2023/07/30 09:06:47;;;;;;;;;;;27.20;76.20;;;;;;5065747;28;20064;-68
2023/07/30 09:09:13;;;;;;;3.75;2.13;;;26.60;79.10;;;;;;5067681;28;19914;-68
2023/07/30 09:11:39;;;;;;;5.60;2.80;;;26.30;80.80;;;;;;5068874;28;20035;-68
2023/07/30 09:14:06;;;;;;;4.88;2.72;;;28.00;79.00;;;;;;5060901;28;20033;-67
2023/07/30 09:16:31;;;;;;;7.43;3.03;;;30.50;70.60;;;;;;5060080;28;20043;-67
2023/07/30 09:18:57;;;;;;;2.80;2.20;;;34.20;63.80;;;;;;5057597;28;20033;-68
2023/07/30 09:21:33;;;;;;;2.80;2.08;;;35.00;60.10;;;;;;5061473;28;20525;-68
2023/07/30 09:24:05;;;;;;;2.67;2.22;;;31.30;62.70;;;;;;5056218;28;20048;-68
2023/07/30 09:26:43;;;;;;;4.05;2.55;;;32.80;61.20;;;;;;5068127;28;20105;-68
2023/07/30 09:29:10;;;;;;;3.90;2.10;;;37.60;56.50;;;;;;5066840;28;20533;-68
2023/07/30 09:31:54;;;;;;;7.25;2.00;;;37.70;54.90;;;;;;5066260;28;20058;-68
2023/07/30 09:34:20;;;;;;;3.78;2.58;;;38.20;53.10;;;;;;5061781;28;20035;-68
2023/07/30 09:36:47;;;;;;;3.42;2.13;;;37.50;54.70;;;;;;5063663;28;20037;-70
2023/07/30 09:39:23;;;;;;;3.15;1.80;;;37.80;52.60;;;;;;5069377;28;20021;-69
2023/07/30 09:41:51;;;;;;;3.30;2.38;;;37.70;51.80;;;;;;5061803;28;20035;-69
2023/07/30 09:44:18;;;;;;;5.38;2.50;;;40.40;49.10;;;;;;5069544;28;20518;-67
2023/07/30 09:46:46;;;;;;;2.72;2.00;;;41.30;47.30;;;;;;5070138;28;20494;-67
2023/07/30 09:49:15;;;;;;;2.95;1.80;;;41.90;47.60;;;;;;5066135;28;20039;-67
2023/07/30 09:51:40;;;;;;;3.25;2.10;;;42.90;45.40;;;;;;5061337;28;20076;-67
2023/07/30 09:54:13;;;;;;;5.22;2.40;;;43.60;47.10;;;;;;5071554;28;20047;-70
2023/07/30 09:56:41;;;;;;;12.77;4.80;;;43.30;44.20;;;;;;5061145;28;20025;-69
2023/07/30 09:59:08;;;;;;;10.50;4.55;;;43.50;43.90;;;;;;5067149;28;20028;-67
2023/07/30 10:01:44;;;;;;;14.23;5.13;;;43.00;43.00;;;;;;5064370;28;20119;-67
2023/07/30 10:04:10;;;;;;;9.70;4.65;;;44.20;43.70;;;;;;5062296;28;20082;-68
2023/07/30 10:06:52;;;;;;;6.57;4.07;;;43.50;43.90;;;;;;5064156;28;20043;-67
2023/07/30 10:09:20;;;;;;;5.93;3.78;;;43.70;44.40;;;;;;5066680;28;20036;-67
2023/07/30 10:11:48;;;;;;;4.15;3.00;;;43.30;44.50;;;;;;5062047;28;20025;-68
2023/07/30 10:14:18;;;;;;;9.75;4.82;;;37.90;47.90;;;;;;5065495;28;20021;-68
2023/07/30 10:16:54;;;;;;;8.52;3.88;;;40.50;46.20;;;;;;5068359;28;20401;-67
2023/07/30 10:19:25;;;;;;;5.47;3.20;;;41.80;43.90;;;;;;5060276;28;20028;-68
2023/07/30 10:21:51;;;;;;;5.20;3.10;;;42.80;43.50;;;;;;5059543;28;20033;-68
2023/07/30 10:24:16;;;;;;;4.32;3.10;;;43.40;43.90;;;;;;5068875;28;20112;-67
2023/07/30 10:26:42;;;;;;;6.90;3.25;;;43.30;42.70;;;;;;5062244;28;20448;-67
2023/07/30 10:29:12;;;;;;;3.63;2.50;;;43.30;42.70;;;;;;5060563;28;20025;-68
2023/07/30 10:31:42;;;;;;;6.15;3.20;;;43.00;43.20;;;;;;5068840;28;20076;-67
2023/07/30 10:34:09;;;;;;;5.57;2.60;;;44.20;42.90;;;;;;5063815;28;20052;-68
2023/07/30 10:36:43;;;;;;;6.40;2.25;;;40.30;44.10;;;;;;5066278;28;20060;-68
2023/07/30 10:39:17;;;;;;;3.15;2.25;;;40.30;44.80;;;;;;5063679;28;20028;-68
2023/07/30 10:41:50;;;;;;;4.38;2.90;;;41.10;46.60;;;;;;5066206;28;20055;-67
2023/07/30 10:44:25;;;;;;;8.05;1.80;;;37.70;47.60;;;;;;5065051;28;20043;-68
2023/07/30 10:46:55;;;;;;;3.90;2.20;;;34.30;51.60;;;;;;5065602;28;20524;-68
2023/07/30 10:49:22;;;;;;;4.18;1.83;;;33.20;55.60;;;;;;5069190;28;20692;-69
2023/07/30 10:51:47;;;;;;;3.95;2.38;;;31.40;55.50;;;;;;5070281;28;20029;-69
2023/07/30 10:54:13;;;;;;;;;;;31.20;59.10;;;;;;5069748;28;20039;-68
2023/07/30 10:56:40;;;;;;;6.35;1.92;;;31.00;58.40;;;;;;5067559;28;19916;-68
2023/07/30 10:59:07;;;;;;;3.92;2.08;;;30.00;60.40;;;;;;5081922;28;20378;-69
2023/07/30 11:01:37;;;;;;;3.53;1.77;;;29.90;61.70;;;;;;5067967;28;20087;-69
2023/07/30 11:04:10;;;;;;;3.80;2.45;;;29.60;59.90;;;;;;5066596;28;20049;-69
2023/07/30 11:06:35;;;;;;;5.63;2.55;;;29.70;61.90;;;;;;5055739;28;20104;-70
2023/07/30 11:09:01;;;;;;;6.95;2.40;;;29.80;60.00;;;;;;5060748;28;20115;-69
2023/07/30 11:11:27;;;;;;;4.13;2.30;;;29.60;60.00;;;;;;5066468;28;20032;-69
2023/07/30 11:13:52;;;;;;;4.47;1.75;;;29.70;62.10;;;;;;5071008;28;20021;-70
2023/07/30 11:16:18;;;;;;;2.60;2.10;;;29.30;60.30;;;;;;5066301;28;20032;-69
2023/07/30 11:18:44;;;;;;;5.40;1.85;;;29.00;59.90;;;;;;5064783;28;20028;-69
2023/07/30 11:21:10;;;;;;;4.15;1.88;;;28.60;60.20;;;;;;5068882;28;20517;-69
2023/07/30 11:23:38;;;;;;;3.83;2.10;;;28.60;62.60;;;;;;5064425;28;20032;-69
2023/07/30 11:26:06;;;;;;;1.77;1.60;;;28.80;58.50;;;;;;5060372;28;20399;-69
2023/07/30 11:28:37;;;;;;;9.00;2.38;;;28.80;61.10;;;;;;5067267;28;20119;-69
2023/07/30 11:31:13;;;;;;;3.38;1.60;;;28.80;61.40;;;;;;5068219;28;20032;-69
2023/07/30 11:33:44;;;;;;;2.65;1.83;;;28.20;59.10;;;;;;5063417;28;20051;-70
2023/07/30 11:36:16;;;;;;;4.28;1.90;;;28.60;61.70;;;;;;5061669;28;20036;-69
2023/07/30 11:38:42;;;;;;;2.15;1.60;;;28.70;61.60;;;;;;5066199;28;20505;-69
2023/07/30 11:41:10;;;;;;;2.65;2.00;;;28.90;62.40;;;;;;5064262;28;20028;-69
2023/07/30 11:43:37;;;;;;;2.78;2.15;;;28.90;61.30;;;;;;5063302;28;20052;-68
2023/07/30 11:46:14;;;;;;;4.45;1.77;;;28.80;62.80;;;;;;5068073;28;21098;-69
2023/07/30 11:48:41;;;;;;;;;;;28.80;62.80;;;;;;5067694;28;20029;-68
2023/07/30 11:51:07;;;;;;;2.88;2.03;;;28.80;59.60;;;;;;5064376;28;19916;-69
2023/07/30 11:53:56;;;;;;;5.82;2.10;;;28.80;61.10;;;;;;5066908;28;20149;-69
2023/07/30 11:56:30;;;;;;;16.25;3.78;;;28.90;64.30;;;;;;5059748;28;20071;-69
2023/07/30 11:59:22;;;;;;;8.35;2.20;;;29.00;64.00;;;;;;5059246;28;20062;-73
2023/07/30 12:01:48;;;;;;;3.78;2.08;;;28.30;64.30;;;;;;5056256;28;20136;-71
2023/07/30 12:04:14;;;;;;;4.40;2.22;;;28.30;63.30;;;;;;5066664;28;20041;-71
2023/07/30 12:06:46;;;;;;;3.97;2.08;;;28.00;61.10;;;;;;5063176;28;20041;-71
2023/07/30 12:09:17;;;;;;;3.67;1.60;;;27.90;64.90;;;;;;5066966;28;20035;-72
2023/07/30 12:11:54;;;;;;;2.42;1.77;;;27.80;60.20;;;;;;5067836;28;20123;-72
2023/07/30 12:14:21;;;;;;;;;;;27.80;61.80;;;;;;5068893;28;20036;-72
2023/07/30 12:16:47;;;;;;;3.15;2.08;;;28.00;60.20;;;;;;5069229;28;19912;-71
2023/07/30 12:19:13;;;;;;;5.10;2.22;;;28.20;63.90;;;;;;5061427;28;20406;-72
2023/07/30 12:21:39;;;;;;;4.65;1.95;;;28.40;60.80;;;;;;5069222;28;20223;-71
2023/07/30 12:24:04;;;;;;;3.80;1.88;;;28.10;59.90;;;;;;5067131;28;20032;-74
2023/07/30 12:26:30;;;;;;;4.80;1.80;;;28.10;63.50;;;;;;5067384;28;20152;-72
2023/07/30 12:28:56;;;;;;;7.05;2.25;;;28.40;60.20;;;;;;5068449;28;20498;-77
2023/07/30 12:31:21;;;;;;;4.85;2.13;;;28.20;61.70;;;;;;5078858;28;20043;-74
2023/07/30 12:33:47;;;;;;;6.13;2.10;;;27.90;60.70;;;;;;5060644;28;20029;-72
2023/07/30 12:36:13;;;;;;;4.57;1.90;;;28.20;60.40;;;;;;5068582;28;20101;-83
2023/07/30 12:38:39;;;;;;;4.40;2.13;;;28.50;58.50;;;;;;5062742;28;20926;-79
2023/07/30 12:41:04;;;;;;;3.60;1.60;;;28.40;59.30;;;;;;5067661;28;20163;-79
2023/07/30 12:43:30;;;;;;;2.60;1.83;;;28.70;57.60;;;;;;5065381;28;20123;-81
2023/07/30 12:45:56;;;;;;;2.78;2.03;;;28.70;58.90;;;;;;5066371;28;20449;-79